TVS4452 SBEG-SCCF
Flight info
| Callsign | TVS4452 |
|---|---|
| Flight time | 5h 3m |
| Altitude | 40000 |
| Route | VUNEP UM665 IQT UV5 TRU/N0450F410 UV1 JCL UL550 ALDAX UT210 OPLES UM789 VUREL VUREL3F |
| Aircraft | B38M/M-SDE3FGHIJ1J3J4J7M3P2RWXYZ/LB1D1 |
Departure
| Time | 2026-04-29 11:31 |
|---|---|
| Airport | Eduardo Gomes International Airport (SBEG) |
Arrival
| Time | 2026-04-29 16:35 |
|---|---|
| Airport | El Loa Airport (SCCF) |
| Time | Latitude | Longitude | Altitude | Speed | Heading |
|---|---|---|---|---|---|
| 2026-04-29 10:50 | -3.03261 | -60.04773 | 274 ft | 0 kts | 353° |
| 2026-04-29 11:24 | -3.03273 | -60.04772 | 274 ft | 4 kts | 351° |
| 2026-04-29 11:24 | -3.03299 | -60.04767 | 274 ft | 4 kts | 348° |
| 2026-04-29 11:24 | -3.03326 | -60.04760 | 274 ft | 4 kts | 343° |
| 2026-04-29 11:25 | -3.03351 | -60.04751 | 274 ft | 4 kts | 331° |
| 2026-04-29 11:25 | -3.03370 | -60.04735 | 274 ft | 4 kts | 291° |
| 2026-04-29 11:25 | -3.03371 | -60.04723 | 274 ft | 1 kts | 256° |
| 2026-04-29 11:25 | -3.03370 | -60.04721 | 274 ft | 0 kts | 256° |
| 2026-04-29 11:27 | -3.03375 | -60.04740 | 274 ft | 7 kts | 254° |
| 2026-04-29 11:28 | -3.03418 | -60.04824 | 274 ft | 19 kts | 237° |
| 2026-04-29 11:28 | -3.03526 | -60.04926 | 274 ft | 23 kts | 223° |
| 2026-04-29 11:28 | -3.03600 | -60.05076 | 274 ft | 27 kts | 257° |
| 2026-04-29 11:28 | -3.03653 | -60.05275 | 274 ft | 29 kts | 256° |
| 2026-04-29 11:29 | -3.03689 | -60.05478 | 274 ft | 31 kts | 266° |
| 2026-04-29 11:29 | -3.03692 | -60.05696 | 274 ft | 32 kts | 270° |
| 2026-04-29 11:29 | -3.03692 | -60.05924 | 274 ft | 33 kts | 268° |
| 2026-04-29 11:29 | -3.03701 | -60.06123 | 274 ft | 18 kts | 252° |
| 2026-04-29 11:30 | -3.03768 | -60.06170 | 274 ft | 15 kts | 190° |
| 2026-04-29 11:30 | -3.03850 | -60.06171 | 275 ft | 3 kts | 158° |
| 2026-04-29 11:30 | -3.03853 | -60.06163 | 275 ft | 2 kts | 108° |
| 2026-04-29 11:30 | -3.03856 | -60.06080 | 275 ft | 39 kts | 91° |
| 2026-04-29 11:31 | -3.03858 | -60.05535 | 274 ft | 115 kts | 90° |
| 2026-04-29 11:31 | -3.03860 | -60.04527 | 286 ft | 171 kts | 90° |
| 2026-04-29 11:31 | -3.03860 | -60.03313 | 952 ft | 174 kts | 90° |
| 2026-04-29 11:31 | -3.03859 | -60.02095 | 1790 ft | 173 kts | 91° |
| 2026-04-29 11:32 | -3.03874 | -60.00829 | 2410 ft | 193 kts | 92° |
| 2026-04-29 11:32 | -3.04322 | -59.99480 | 2834 ft | 224 kts | 129° |
| 2026-04-29 11:32 | -3.05699 | -59.98618 | 3359 ft | 250 kts | 167° |
| 2026-04-29 11:32 | -3.07478 | -59.98761 | 4015 ft | 271 kts | 202° |
| 2026-04-29 11:33 | -3.08941 | -59.99950 | 4932 ft | 277 kts | 236° |
| 2026-04-29 11:33 | -3.09697 | -60.01740 | 5819 ft | 284 kts | 253° |
| 2026-04-29 11:33 | -3.10392 | -60.03604 | 6753 ft | 288 kts | 248° |
| 2026-04-29 11:33 | -3.11203 | -60.05449 | 7688 ft | 291 kts | 245° |
| 2026-04-29 11:34 | -3.12094 | -60.07283 | 8672 ft | 294 kts | 243° |
| 2026-04-29 11:34 | -3.13038 | -60.09112 | 9766 ft | 297 kts | 242° |
| 2026-04-29 11:34 | -3.14026 | -60.10961 | 10550 ft | 309 kts | 241° |
| 2026-04-29 11:34 | -3.15067 | -60.12903 | 11168 ft | 324 kts | 244° |
| 2026-04-29 11:35 | -3.15635 | -60.15102 | 11945 ft | 330 kts | 265° |
| 2026-04-29 11:35 | -3.15824 | -60.17411 | 12783 ft | 337 kts | 264° |
| 2026-04-29 11:35 | -3.16028 | -60.19761 | 13610 ft | 342 kts | 265° |
| 2026-04-29 11:35 | -3.16225 | -60.22146 | 14348 ft | 346 kts | 265° |
| 2026-04-29 11:36 | -3.16419 | -60.24561 | 15090 ft | 350 kts | 265° |
| 2026-04-29 11:36 | -3.16613 | -60.27000 | 15814 ft | 354 kts | 265° |
| 2026-04-29 11:36 | -3.16808 | -60.29469 | 16529 ft | 358 kts | 265° |
| 2026-04-29 11:36 | -3.16955 | -60.31967 | 17218 ft | 362 kts | 267° |
| 2026-04-29 11:37 | -3.17087 | -60.34491 | 17921 ft | 365 kts | 266° |
| 2026-04-29 11:37 | -3.17225 | -60.37041 | 18532 ft | 369 kts | 266° |
| 2026-04-29 11:37 | -3.17365 | -60.39619 | 19099 ft | 373 kts | 266° |
| 2026-04-29 11:37 | -3.17506 | -60.42217 | 19664 ft | 376 kts | 266° |
| 2026-04-29 11:38 | -3.17649 | -60.44842 | 20221 ft | 379 kts | 266° |
| 2026-04-29 11:38 | -3.17794 | -60.47488 | 20779 ft | 383 kts | 266° |
| 2026-04-29 11:38 | -3.17939 | -60.50161 | 21329 ft | 386 kts | 266° |
| 2026-04-29 11:38 | -3.18086 | -60.52854 | 21873 ft | 390 kts | 266° |
| 2026-04-29 11:39 | -3.18234 | -60.55572 | 22410 ft | 393 kts | 266° |
| 2026-04-29 11:39 | -3.18384 | -60.58318 | 22945 ft | 397 kts | 266° |
| 2026-04-29 11:39 | -3.18534 | -60.61084 | 23477 ft | 400 kts | 266° |
| 2026-04-29 11:39 | -3.18686 | -60.63876 | 23918 ft | 404 kts | 266° |
| 2026-04-29 11:40 | -3.18839 | -60.66688 | 24386 ft | 406 kts | 266° |
| 2026-04-29 11:40 | -3.18992 | -60.69514 | 24846 ft | 408 kts | 266° |
| 2026-04-29 11:40 | -3.19146 | -60.72358 | 25300 ft | 411 kts | 266° |
| 2026-04-29 11:40 | -3.19302 | -60.75223 | 25750 ft | 414 kts | 266° |
| 2026-04-29 11:41 | -3.19405 | -60.77131 | 26052 ft | 415 kts | 266° |
| 2026-04-29 11:41 | -3.19562 | -60.80026 | 26498 ft | 418 kts | 266° |
| 2026-04-29 11:41 | -3.19720 | -60.82937 | 26937 ft | 421 kts | 266° |
| 2026-04-29 11:41 | -3.19879 | -60.85871 | 27379 ft | 423 kts | 266° |
| 2026-04-29 11:42 | -3.20039 | -60.88819 | 27795 ft | 426 kts | 266° |
| 2026-04-29 11:42 | -3.20199 | -60.91789 | 28208 ft | 429 kts | 266° |
| 2026-04-29 11:42 | -3.20361 | -60.94777 | 28621 ft | 431 kts | 266° |
| 2026-04-29 11:42 | -3.20523 | -60.97780 | 29021 ft | 434 kts | 266° |
| 2026-04-29 11:43 | -3.20687 | -61.00808 | 29431 ft | 437 kts | 266° |
| 2026-04-29 11:43 | -3.20851 | -61.03846 | 29814 ft | 439 kts | 266° |
| 2026-04-29 11:43 | -3.21016 | -61.06910 | 30178 ft | 442 kts | 266° |
| 2026-04-29 11:43 | -3.21182 | -61.09986 | 30512 ft | 444 kts | 266° |
| 2026-04-29 11:44 | -3.21348 | -61.13076 | 30847 ft | 446 kts | 267° |
| 2026-04-29 11:44 | -3.21515 | -61.16182 | 31177 ft | 448 kts | 266° |
| 2026-04-29 11:44 | -3.21684 | -61.19303 | 31507 ft | 450 kts | 267° |
| 2026-04-29 11:44 | -3.21852 | -61.22436 | 31824 ft | 452 kts | 267° |
| 2026-04-29 11:45 | -3.22021 | -61.25584 | 32148 ft | 454 kts | 267° |
| 2026-04-29 11:45 | -3.22191 | -61.28746 | 32462 ft | 456 kts | 267° |
| 2026-04-29 11:45 | -3.22362 | -61.31925 | 32778 ft | 458 kts | 267° |
| 2026-04-29 11:45 | -3.22534 | -61.35120 | 33093 ft | 460 kts | 267° |
| 2026-04-29 11:46 | -3.22705 | -61.38326 | 33391 ft | 463 kts | 267° |
| 2026-04-29 11:46 | -3.22878 | -61.41546 | 33685 ft | 465 kts | 267° |
| 2026-04-29 11:46 | -3.23051 | -61.44782 | 33979 ft | 467 kts | 267° |
| 2026-04-29 11:46 | -3.23225 | -61.48034 | 34226 ft | 469 kts | 267° |
| 2026-04-29 11:47 | -3.23400 | -61.51299 | 34483 ft | 471 kts | 267° |
| 2026-04-29 11:47 | -3.23576 | -61.54574 | 34734 ft | 472 kts | 267° |
| 2026-04-29 11:47 | -3.23751 | -61.57862 | 35023 ft | 473 kts | 267° |
| 2026-04-29 11:47 | -3.23926 | -61.61144 | 35363 ft | 472 kts | 267° |
| 2026-04-29 11:48 | -3.24101 | -61.64424 | 35709 ft | 471 kts | 267° |
| 2026-04-29 11:48 | -3.24276 | -61.67696 | 36070 ft | 470 kts | 267° |
| 2026-04-29 11:48 | -3.24448 | -61.70912 | 36420 ft | 469 kts | 267° |
| 2026-04-29 11:48 | -3.24623 | -61.74205 | 36773 ft | 468 kts | 267° |
| 2026-04-29 11:49 | -3.24796 | -61.77449 | 37118 ft | 466 kts | 267° |
| 2026-04-29 11:49 | -3.24966 | -61.80639 | 37449 ft | 465 kts | 267° |
| 2026-04-29 11:49 | -3.25137 | -61.83869 | 37784 ft | 463 kts | 267° |
| 2026-04-29 11:49 | -3.25308 | -61.87082 | 38106 ft | 462 kts | 267° |
| 2026-04-29 11:50 | -3.25478 | -61.90286 | 38416 ft | 461 kts | 267° |
| 2026-04-29 11:50 | -3.25648 | -61.93480 | 38706 ft | 459 kts | 267° |
| 2026-04-29 11:50 | -3.25817 | -61.96671 | 38935 ft | 458 kts | 267° |
| 2026-04-29 11:50 | -3.25986 | -61.99856 | 39156 ft | 457 kts | 267° |
| 2026-04-29 11:51 | -3.26154 | -62.03023 | 39377 ft | 456 kts | 267° |
| 2026-04-29 11:51 | -3.26323 | -62.06197 | 39569 ft | 456 kts | 267° |
| 2026-04-29 11:51 | -3.26490 | -62.09357 | 39767 ft | 455 kts | 268° |
| 2026-04-29 11:51 | -3.26657 | -62.12517 | 39928 ft | 454 kts | 268° |
| 2026-04-29 11:52 | -3.26990 | -62.18816 | 39951 ft | 452 kts | 268° |
| 2026-04-29 11:52 | -3.27321 | -62.25090 | 39960 ft | 452 kts | 268° |
| 2026-04-29 11:53 | -3.27652 | -62.31366 | 39961 ft | 452 kts | 268° |
| 2026-04-29 11:53 | -3.27982 | -62.37642 | 39958 ft | 452 kts | 268° |
| 2026-04-29 11:54 | -3.28313 | -62.43918 | 39958 ft | 451 kts | 268° |
| 2026-04-29 11:54 | -3.28643 | -62.50192 | 39959 ft | 451 kts | 268° |
| 2026-04-29 11:55 | -3.28972 | -62.56465 | 39958 ft | 451 kts | 268° |
| 2026-04-29 11:55 | -3.29301 | -62.62741 | 39960 ft | 451 kts | 268° |
| 2026-04-29 11:56 | -3.29629 | -62.69015 | 39954 ft | 452 kts | 268° |
| 2026-04-29 11:56 | -3.29957 | -62.75290 | 39958 ft | 452 kts | 268° |
| 2026-04-29 11:57 | -3.30285 | -62.81571 | 39959 ft | 452 kts | 268° |
| 2026-04-29 11:57 | -3.30613 | -62.87850 | 39958 ft | 452 kts | 268° |
| 2026-04-29 11:58 | -3.30940 | -62.94136 | 39959 ft | 452 kts | 268° |
| 2026-04-29 11:58 | -3.31265 | -63.00385 | 39954 ft | 452 kts | 268° |
| 2026-04-29 11:59 | -3.31592 | -63.06672 | 39957 ft | 453 kts | 268° |
| 2026-04-29 11:59 | -3.31919 | -63.12969 | 39955 ft | 453 kts | 268° |
| 2026-04-29 12:00 | -3.32245 | -63.19261 | 39952 ft | 453 kts | 268° |
| 2026-04-29 12:00 | -3.32572 | -63.25564 | 39952 ft | 453 kts | 268° |
| 2026-04-29 12:01 | -3.32898 | -63.31864 | 39952 ft | 454 kts | 268° |
| 2026-04-29 12:01 | -3.33223 | -63.38168 | 39939 ft | 454 kts | 268° |
| 2026-04-29 12:02 | -3.33549 | -63.44474 | 39975 ft | 454 kts | 268° |
| 2026-04-29 12:02 | -3.33873 | -63.50775 | 39958 ft | 454 kts | 268° |
| 2026-04-29 12:03 | -3.34198 | -63.57085 | 39953 ft | 454 kts | 268° |
| 2026-04-29 12:03 | -3.34522 | -63.63393 | 39955 ft | 454 kts | 268° |
| 2026-04-29 12:04 | -3.34846 | -63.69707 | 39952 ft | 454 kts | 268° |
| 2026-04-29 12:04 | -3.35170 | -63.76014 | 39957 ft | 454 kts | 268° |
| 2026-04-29 12:05 | -3.35493 | -63.82324 | 39955 ft | 454 kts | 268° |
| 2026-04-29 12:05 | -3.35815 | -63.88630 | 39956 ft | 454 kts | 268° |
| 2026-04-29 12:06 | -3.36137 | -63.94941 | 39954 ft | 454 kts | 268° |
| 2026-04-29 12:06 | -3.36459 | -64.01251 | 39955 ft | 454 kts | 268° |
| 2026-04-29 12:07 | -3.36781 | -64.07560 | 39956 ft | 454 kts | 268° |
| 2026-04-29 12:07 | -3.37102 | -64.13874 | 39956 ft | 454 kts | 268° |
| 2026-04-29 12:08 | -3.37423 | -64.20189 | 39956 ft | 455 kts | 268° |
| 2026-04-29 12:08 | -3.37744 | -64.26509 | 39952 ft | 455 kts | 268° |
| 2026-04-29 12:09 | -3.38064 | -64.32828 | 39952 ft | 455 kts | 268° |
| 2026-04-29 12:09 | -3.38384 | -64.39152 | 39950 ft | 455 kts | 268° |
| 2026-04-29 12:10 | -3.38704 | -64.45479 | 39955 ft | 455 kts | 268° |
| 2026-04-29 12:10 | -3.39023 | -64.51811 | 39959 ft | 456 kts | 268° |
| 2026-04-29 12:11 | -3.39341 | -64.58106 | 39960 ft | 456 kts | 268° |
| 2026-04-29 12:11 | -3.39660 | -64.64444 | 39965 ft | 456 kts | 269° |
| 2026-04-29 12:12 | -3.39979 | -64.70785 | 39968 ft | 456 kts | 269° |
| 2026-04-29 12:12 | -3.40298 | -64.77126 | 39968 ft | 456 kts | 268° |
| 2026-04-29 12:13 | -3.40616 | -64.83470 | 39966 ft | 456 kts | 268° |
| 2026-04-29 12:13 | -3.40934 | -64.89817 | 39958 ft | 457 kts | 268° |
| 2026-04-29 12:14 | -3.41252 | -64.96168 | 39954 ft | 457 kts | 268° |
| 2026-04-29 12:14 | -3.41569 | -65.02517 | 39953 ft | 457 kts | 268° |
| 2026-04-29 12:15 | -3.41886 | -65.08866 | 39943 ft | 456 kts | 268° |
| 2026-04-29 12:15 | -3.42201 | -65.15200 | 39944 ft | 456 kts | 268° |
| 2026-04-29 12:16 | -3.42517 | -65.21530 | 39943 ft | 455 kts | 268° |
| 2026-04-29 12:16 | -3.42831 | -65.27855 | 39945 ft | 455 kts | 268° |
| 2026-04-29 12:17 | -3.43144 | -65.34168 | 39941 ft | 454 kts | 268° |
| 2026-04-29 12:17 | -3.43457 | -65.40477 | 39942 ft | 454 kts | 268° |
| 2026-04-29 12:18 | -3.43769 | -65.46784 | 39943 ft | 453 kts | 268° |
| 2026-04-29 12:18 | -3.44078 | -65.53044 | 39939 ft | 453 kts | 268° |
| 2026-04-29 12:19 | -3.44389 | -65.59337 | 39938 ft | 453 kts | 268° |
| 2026-04-29 12:19 | -3.44699 | -65.65631 | 39938 ft | 452 kts | 268° |
| 2026-04-29 12:20 | -3.45009 | -65.71915 | 39938 ft | 452 kts | 268° |
| 2026-04-29 12:20 | -3.45318 | -65.78206 | 39943 ft | 452 kts | 268° |
| 2026-04-29 12:21 | -3.45627 | -65.84493 | 39940 ft | 452 kts | 268° |
| 2026-04-29 12:21 | -3.45935 | -65.90776 | 39940 ft | 452 kts | 268° |
| 2026-04-29 12:22 | -3.46242 | -65.97063 | 39937 ft | 452 kts | 268° |
| 2026-04-29 12:22 | -3.46550 | -66.03347 | 39937 ft | 452 kts | 268° |
| 2026-04-29 12:23 | -3.46857 | -66.09633 | 39940 ft | 452 kts | 268° |
| 2026-04-29 12:23 | -3.47163 | -66.15915 | 39939 ft | 452 kts | 268° |
| 2026-04-29 12:24 | -3.47469 | -66.22190 | 39939 ft | 452 kts | 268° |
| 2026-04-29 12:24 | -3.47774 | -66.28471 | 39937 ft | 451 kts | 268° |
| 2026-04-29 12:25 | -3.48079 | -66.34743 | 39939 ft | 451 kts | 268° |
| 2026-04-29 12:26 | -3.48535 | -66.44152 | 39941 ft | 451 kts | 268° |
| 2026-04-29 12:26 | -3.48839 | -66.50423 | 39939 ft | 451 kts | 268° |
| 2026-04-29 12:27 | -3.49141 | -66.56685 | 39938 ft | 451 kts | 268° |
| 2026-04-29 12:27 | -3.49444 | -66.62949 | 39937 ft | 450 kts | 268° |
| 2026-04-29 12:28 | -3.49694 | -66.68148 | 39939 ft | 450 kts | 268° |
| 2026-04-29 12:28 | -3.49996 | -66.74407 | 39938 ft | 450 kts | 268° |
| 2026-04-29 12:29 | -3.50296 | -66.80662 | 39940 ft | 450 kts | 268° |
| 2026-04-29 12:29 | -3.50596 | -66.86913 | 39938 ft | 450 kts | 268° |
| 2026-04-29 12:30 | -3.50896 | -66.93159 | 39940 ft | 449 kts | 268° |
| 2026-04-29 12:30 | -3.51195 | -66.99408 | 39936 ft | 449 kts | 268° |
| 2026-04-29 12:31 | -3.51493 | -67.05647 | 39939 ft | 449 kts | 268° |
| 2026-04-29 12:31 | -3.51792 | -67.11889 | 39934 ft | 449 kts | 268° |
| 2026-04-29 12:32 | -3.52089 | -67.18128 | 39937 ft | 449 kts | 268° |
| 2026-04-29 12:32 | -3.52386 | -67.24369 | 39935 ft | 449 kts | 268° |
| 2026-04-29 12:33 | -3.52681 | -67.30572 | 39936 ft | 449 kts | 268° |
| 2026-04-29 12:33 | -3.52978 | -67.36823 | 39936 ft | 450 kts | 268° |
| 2026-04-29 12:34 | -3.53274 | -67.43074 | 39938 ft | 450 kts | 268° |
| 2026-04-29 12:34 | -3.53571 | -67.49334 | 39935 ft | 450 kts | 268° |
| 2026-04-29 12:35 | -3.53867 | -67.55596 | 39937 ft | 450 kts | 268° |
| 2026-04-29 12:35 | -3.54162 | -67.61854 | 39935 ft | 450 kts | 268° |
| 2026-04-29 12:36 | -3.54457 | -67.68118 | 39932 ft | 450 kts | 268° |
| 2026-04-29 12:36 | -3.54752 | -67.74377 | 39934 ft | 450 kts | 268° |
| 2026-04-29 12:37 | -3.55046 | -67.80640 | 39935 ft | 451 kts | 268° |
| 2026-04-29 12:37 | -3.55340 | -67.86908 | 39934 ft | 451 kts | 268° |
| 2026-04-29 12:38 | -3.55634 | -67.93172 | 39934 ft | 451 kts | 268° |
| 2026-04-29 12:38 | -3.55927 | -67.99438 | 39933 ft | 451 kts | 268° |
| 2026-04-29 12:39 | -3.56221 | -68.05712 | 39934 ft | 451 kts | 268° |
| 2026-04-29 12:39 | -3.56513 | -68.11984 | 39932 ft | 451 kts | 268° |
| 2026-04-29 12:40 | -3.56806 | -68.18263 | 39935 ft | 452 kts | 268° |
| 2026-04-29 12:40 | -3.56950 | -68.21404 | 41482 ft | 452 kts | 267° |
| 2026-04-29 12:40 | -3.57097 | -68.24538 | 41239 ft | 450 kts | 267° |
| 2026-04-29 12:40 | -3.57243 | -68.27668 | 40992 ft | 449 kts | 267° |
| 2026-04-29 12:41 | -3.57388 | -68.30789 | 40749 ft | 449 kts | 267° |
| 2026-04-29 12:41 | -3.57533 | -68.33917 | 40504 ft | 450 kts | 267° |
| 2026-04-29 12:41 | -3.57679 | -68.37047 | 40261 ft | 450 kts | 267° |
| 2026-04-29 12:41 | -3.57823 | -68.40176 | 40037 ft | 450 kts | 267° |
| 2026-04-29 12:42 | -3.57968 | -68.43306 | 39987 ft | 450 kts | 267° |
| 2026-04-29 12:42 | -3.58257 | -68.49545 | 40003 ft | 453 kts | 267° |
| 2026-04-29 12:43 | -3.58548 | -68.55840 | 39999 ft | 453 kts | 267° |
| 2026-04-29 12:43 | -3.58838 | -68.62136 | 40001 ft | 453 kts | 267° |
| 2026-04-29 12:44 | -3.59128 | -68.68432 | 40001 ft | 453 kts | 267° |
| 2026-04-29 12:44 | -3.59418 | -68.74727 | 40001 ft | 453 kts | 267° |
| 2026-04-29 12:45 | -3.59707 | -68.81023 | 40000 ft | 453 kts | 267° |
| 2026-04-29 12:45 | -3.59995 | -68.87316 | 40000 ft | 453 kts | 267° |
| 2026-04-29 12:46 | -3.60283 | -68.93613 | 40000 ft | 453 kts | 267° |
| 2026-04-29 12:46 | -3.60571 | -68.99905 | 40000 ft | 453 kts | 267° |
| 2026-04-29 12:47 | -3.60858 | -69.06203 | 40000 ft | 453 kts | 267° |
| 2026-04-29 12:47 | -3.61145 | -69.12496 | 40000 ft | 453 kts | 267° |
| 2026-04-29 12:48 | -3.61431 | -69.18794 | 40001 ft | 453 kts | 267° |
| 2026-04-29 12:48 | -3.61718 | -69.25092 | 40001 ft | 453 kts | 267° |
| 2026-04-29 12:49 | -3.62003 | -69.31387 | 40000 ft | 453 kts | 267° |
| 2026-04-29 12:49 | -3.62288 | -69.37680 | 40000 ft | 453 kts | 267° |
| 2026-04-29 12:50 | -3.62573 | -69.43980 | 40000 ft | 453 kts | 267° |
| 2026-04-29 12:50 | -3.62855 | -69.50232 | 40000 ft | 453 kts | 267° |
| 2026-04-29 12:51 | -3.63139 | -69.56526 | 40000 ft | 453 kts | 267° |
| 2026-04-29 12:51 | -3.63422 | -69.62824 | 40000 ft | 453 kts | 267° |
| 2026-04-29 12:52 | -3.63705 | -69.69120 | 40000 ft | 453 kts | 267° |
| 2026-04-29 12:52 | -3.63988 | -69.75419 | 40001 ft | 453 kts | 267° |
| 2026-04-29 12:53 | -3.64270 | -69.81712 | 40000 ft | 453 kts | 267° |
| 2026-04-29 12:53 | -3.64552 | -69.88010 | 40000 ft | 453 kts | 267° |
| 2026-04-29 12:54 | -3.64833 | -69.94308 | 40000 ft | 453 kts | 267° |
| 2026-04-29 12:54 | -3.65114 | -70.00606 | 40000 ft | 453 kts | 267° |
| 2026-04-29 12:55 | -3.65394 | -70.06902 | 40000 ft | 453 kts | 267° |
| 2026-04-29 12:55 | -3.65674 | -70.13201 | 40001 ft | 453 kts | 267° |
| 2026-04-29 12:56 | -3.65953 | -70.19497 | 40000 ft | 453 kts | 267° |
| 2026-04-29 12:56 | -3.66232 | -70.25793 | 40001 ft | 453 kts | 267° |
| 2026-04-29 12:57 | -3.66511 | -70.32090 | 40000 ft | 453 kts | 267° |
| 2026-04-29 12:57 | -3.66789 | -70.38387 | 40000 ft | 453 kts | 267° |
| 2026-04-29 12:58 | -3.67065 | -70.44647 | 40000 ft | 453 kts | 267° |
| 2026-04-29 12:58 | -3.67342 | -70.50944 | 40000 ft | 453 kts | 267° |
| 2026-04-29 12:59 | -3.67619 | -70.57241 | 40000 ft | 453 kts | 267° |
| 2026-04-29 12:59 | -3.67895 | -70.63537 | 40000 ft | 453 kts | 267° |
| 2026-04-29 13:00 | -3.68172 | -70.69838 | 40001 ft | 453 kts | 267° |
| 2026-04-29 13:00 | -3.68447 | -70.76134 | 40000 ft | 453 kts | 267° |
| 2026-04-29 13:01 | -3.68722 | -70.82434 | 40001 ft | 453 kts | 267° |
| 2026-04-29 13:01 | -3.68998 | -70.88736 | 38511 ft | 454 kts | 270° |
| 2026-04-29 13:01 | -3.69135 | -70.91889 | 38740 ft | 453 kts | 269° |
| 2026-04-29 13:02 | -3.69272 | -70.95040 | 38986 ft | 452 kts | 269° |
| 2026-04-29 13:02 | -3.69408 | -70.98181 | 39220 ft | 452 kts | 269° |
| 2026-04-29 13:02 | -3.69544 | -71.01319 | 39457 ft | 451 kts | 269° |
| 2026-04-29 13:02 | -3.69680 | -71.04449 | 39687 ft | 450 kts | 269° |
| 2026-04-29 13:03 | -3.69815 | -71.07574 | 39907 ft | 448 kts | 270° |
| 2026-04-29 13:03 | -3.70085 | -71.13799 | 39971 ft | 446 kts | 269° |
| 2026-04-29 13:04 | -3.70353 | -71.19982 | 39988 ft | 444 kts | 270° |
| 2026-04-29 13:04 | -3.70620 | -71.26166 | 39973 ft | 445 kts | 270° |
| 2026-04-29 13:05 | -3.70887 | -71.32356 | 39983 ft | 445 kts | 270° |
| 2026-04-29 13:05 | -3.71153 | -71.38543 | 39974 ft | 445 kts | 270° |
| 2026-04-29 13:06 | -3.71419 | -71.44737 | 39984 ft | 445 kts | 270° |
| 2026-04-29 13:06 | -3.71685 | -71.50934 | 39966 ft | 446 kts | 270° |
| 2026-04-29 13:07 | -3.71951 | -71.57140 | 39966 ft | 446 kts | 270° |
| 2026-04-29 13:07 | -3.72216 | -71.63344 | 39966 ft | 446 kts | 270° |
| 2026-04-29 13:08 | -3.72481 | -71.69554 | 39967 ft | 446 kts | 270° |
| 2026-04-29 13:08 | -3.72746 | -71.75765 | 39969 ft | 447 kts | 270° |
| 2026-04-29 13:09 | -3.73010 | -71.81981 | 39968 ft | 447 kts | 270° |
| 2026-04-29 13:09 | -3.73274 | -71.88195 | 39968 ft | 447 kts | 270° |
| 2026-04-29 13:10 | -3.73538 | -71.94405 | 39967 ft | 447 kts | 270° |
| 2026-04-29 13:10 | -3.73801 | -72.00622 | 39963 ft | 447 kts | 270° |
| 2026-04-29 13:11 | -3.74063 | -72.06838 | 39969 ft | 447 kts | 270° |
| 2026-04-29 13:11 | -3.74324 | -72.13012 | 39969 ft | 447 kts | 270° |
| 2026-04-29 13:12 | -3.74587 | -72.19233 | 39971 ft | 447 kts | 270° |
| 2026-04-29 13:12 | -3.74848 | -72.25455 | 39967 ft | 447 kts | 270° |
| 2026-04-29 13:13 | -3.75110 | -72.31673 | 39969 ft | 447 kts | 270° |
| 2026-04-29 13:13 | -3.75370 | -72.37894 | 39968 ft | 447 kts | 270° |
| 2026-04-29 13:14 | -3.75631 | -72.44114 | 39967 ft | 447 kts | 270° |
| 2026-04-29 13:14 | -3.75891 | -72.50336 | 39969 ft | 447 kts | 270° |
| 2026-04-29 13:15 | -3.76151 | -72.56555 | 39977 ft | 447 kts | 270° |
| 2026-04-29 13:15 | -3.76410 | -72.62776 | 39969 ft | 447 kts | 270° |
| 2026-04-29 13:16 | -3.76668 | -72.69001 | 39969 ft | 447 kts | 270° |
| 2026-04-29 13:16 | -3.76883 | -72.74170 | 39968 ft | 447 kts | 270° |
| 2026-04-29 13:17 | -3.77141 | -72.80392 | 39968 ft | 447 kts | 270° |
| 2026-04-29 13:17 | -3.77398 | -72.86610 | 39969 ft | 447 kts | 270° |
| 2026-04-29 13:18 | -3.77655 | -72.92830 | 39968 ft | 447 kts | 270° |
| 2026-04-29 13:18 | -3.77912 | -72.99046 | 39978 ft | 447 kts | 270° |
| 2026-04-29 13:19 | -3.78168 | -73.05267 | 39967 ft | 447 kts | 270° |
| 2026-04-29 13:19 | -3.78423 | -73.11488 | 39971 ft | 447 kts | 270° |
| 2026-04-29 13:20 | -3.78679 | -73.17708 | 39970 ft | 447 kts | 270° |
| 2026-04-29 13:20 | -3.78933 | -73.23927 | 39966 ft | 447 kts | 270° |
| 2026-04-29 13:21 | -3.79660 | -73.30103 | 39959 ft | 450 kts | 253° |
| 2026-04-29 13:21 | -3.80996 | -73.32943 | 39963 ft | 455 kts | 238° |
| 2026-04-29 13:21 | -3.82977 | -73.35420 | 39986 ft | 458 kts | 230° |
| 2026-04-29 13:22 | -3.87275 | -73.40158 | 39966 ft | 460 kts | 229° |
| 2026-04-29 13:22 | -3.91670 | -73.44834 | 39964 ft | 461 kts | 229° |
| 2026-04-29 13:23 | -3.96088 | -73.49485 | 39961 ft | 461 kts | 228° |
| 2026-04-29 13:23 | -4.00509 | -73.54138 | 39963 ft | 461 kts | 228° |
| 2026-04-29 13:24 | -4.04931 | -73.58791 | 39963 ft | 461 kts | 228° |
| 2026-04-29 13:24 | -4.09349 | -73.63442 | 39968 ft | 461 kts | 228° |
| 2026-04-29 13:25 | -4.13768 | -73.68092 | 39973 ft | 460 kts | 228° |
| 2026-04-29 13:25 | -4.20388 | -73.75063 | 39965 ft | 460 kts | 228° |
| 2026-04-29 13:26 | -4.24804 | -73.79713 | 39964 ft | 460 kts | 228° |
| 2026-04-29 13:26 | -4.29212 | -73.84356 | 39968 ft | 460 kts | 228° |
| 2026-04-29 13:27 | -4.33590 | -73.88969 | 39963 ft | 460 kts | 228° |
| 2026-04-29 13:27 | -4.37991 | -73.93607 | 39963 ft | 459 kts | 228° |
| 2026-04-29 13:28 | -4.42392 | -73.98248 | 39959 ft | 459 kts | 228° |
| 2026-04-29 13:28 | -4.46783 | -74.02878 | 39967 ft | 458 kts | 228° |
| 2026-04-29 13:29 | -4.51170 | -74.07505 | 39958 ft | 458 kts | 228° |
| 2026-04-29 13:29 | -4.55555 | -74.12131 | 39967 ft | 457 kts | 228° |
| 2026-04-29 13:30 | -4.59930 | -74.16748 | 39963 ft | 457 kts | 228° |
| 2026-04-29 13:30 | -4.64300 | -74.21361 | 39959 ft | 456 kts | 228° |
| 2026-04-29 13:31 | -4.68666 | -74.25969 | 39959 ft | 456 kts | 228° |
| 2026-04-29 13:31 | -4.73028 | -74.30575 | 39962 ft | 455 kts | 228° |
| 2026-04-29 13:32 | -4.77389 | -74.35180 | 39970 ft | 455 kts | 228° |
| 2026-04-29 13:32 | -4.81749 | -74.39784 | 39959 ft | 455 kts | 228° |
| 2026-04-29 13:33 | -4.86106 | -74.44387 | 39967 ft | 455 kts | 228° |
| 2026-04-29 13:33 | -4.90461 | -74.48990 | 39957 ft | 455 kts | 228° |
| 2026-04-29 13:34 | -4.94818 | -74.53593 | 39959 ft | 455 kts | 228° |
| 2026-04-29 13:34 | -4.99173 | -74.58197 | 39960 ft | 455 kts | 228° |
| 2026-04-29 13:35 | -5.03497 | -74.62769 | 39957 ft | 455 kts | 228° |
| 2026-04-29 13:35 | -5.07848 | -74.67371 | 39962 ft | 455 kts | 228° |
| 2026-04-29 13:36 | -5.12201 | -74.71975 | 39953 ft | 454 kts | 228° |
| 2026-04-29 13:36 | -5.16549 | -74.76574 | 39952 ft | 454 kts | 228° |
| 2026-04-29 13:37 | -5.20899 | -74.81177 | 39955 ft | 455 kts | 228° |
| 2026-04-29 13:37 | -5.25248 | -74.85780 | 39960 ft | 455 kts | 228° |
| 2026-04-29 13:38 | -5.29597 | -74.90384 | 39954 ft | 454 kts | 228° |
| 2026-04-29 13:38 | -5.33946 | -74.94989 | 39957 ft | 454 kts | 228° |
| 2026-04-29 13:39 | -5.38291 | -74.99591 | 39955 ft | 455 kts | 228° |
| 2026-04-29 13:39 | -5.42643 | -75.04201 | 39955 ft | 454 kts | 228° |
| 2026-04-29 13:40 | -5.46989 | -75.08806 | 39952 ft | 454 kts | 228° |
| 2026-04-29 13:40 | -5.51304 | -75.13379 | 39952 ft | 454 kts | 228° |
| 2026-04-29 13:41 | -5.55649 | -75.17985 | 39950 ft | 454 kts | 228° |
| 2026-04-29 13:41 | -5.59996 | -75.22594 | 39954 ft | 454 kts | 228° |
| 2026-04-29 13:42 | -5.64337 | -75.27198 | 39951 ft | 454 kts | 228° |
| 2026-04-29 13:42 | -5.68678 | -75.31803 | 39954 ft | 454 kts | 228° |
| 2026-04-29 13:43 | -5.73019 | -75.36409 | 39953 ft | 454 kts | 228° |
| 2026-04-29 13:43 | -5.77358 | -75.41014 | 39954 ft | 454 kts | 228° |
| 2026-04-29 13:44 | -5.81699 | -75.45622 | 39955 ft | 454 kts | 228° |
| 2026-04-29 13:44 | -5.86036 | -75.50226 | 39954 ft | 454 kts | 228° |
| 2026-04-29 13:45 | -5.90373 | -75.54832 | 39953 ft | 454 kts | 228° |
| 2026-04-29 13:45 | -5.94709 | -75.59439 | 39955 ft | 454 kts | 228° |
| 2026-04-29 13:46 | -5.99047 | -75.64048 | 39952 ft | 454 kts | 228° |
| 2026-04-29 13:46 | -6.03381 | -75.68655 | 39953 ft | 453 kts | 228° |
| 2026-04-29 13:47 | -6.07713 | -75.73260 | 39955 ft | 453 kts | 228° |
| 2026-04-29 13:47 | -6.12043 | -75.77864 | 39954 ft | 453 kts | 228° |
| 2026-04-29 13:48 | -6.16367 | -75.82462 | 39953 ft | 453 kts | 228° |
| 2026-04-29 13:48 | -6.20693 | -75.87065 | 39954 ft | 453 kts | 228° |
| 2026-04-29 13:49 | -6.25017 | -75.91666 | 39955 ft | 453 kts | 228° |
| 2026-04-29 13:49 | -6.29341 | -75.96268 | 39957 ft | 453 kts | 228° |
| 2026-04-29 13:50 | -6.33665 | -76.00870 | 39960 ft | 453 kts | 228° |
| 2026-04-29 13:50 | -6.37991 | -76.05475 | 39963 ft | 453 kts | 228° |
| 2026-04-29 13:51 | -6.42314 | -76.10079 | 39969 ft | 453 kts | 228° |
| 2026-04-29 13:51 | -6.46637 | -76.14683 | 39979 ft | 453 kts | 228° |
| 2026-04-29 13:52 | -6.50957 | -76.19287 | 39984 ft | 452 kts | 228° |
| 2026-04-29 13:52 | -6.55273 | -76.23886 | 39996 ft | 452 kts | 228° |
| 2026-04-29 13:53 | -6.59590 | -76.28488 | 39993 ft | 452 kts | 229° |
| 2026-04-29 13:53 | -6.63879 | -76.33061 | 39994 ft | 452 kts | 229° |
| 2026-04-29 13:54 | -6.65877 | -76.35531 | 39968 ft | 447 kts | 242° |
| 2026-04-29 13:54 | -6.67329 | -76.38240 | 39994 ft | 447 kts | 243° |
| 2026-04-29 13:54 | -6.70293 | -76.43741 | 39985 ft | 447 kts | 244° |
| 2026-04-29 13:55 | -6.73195 | -76.49268 | 39993 ft | 447 kts | 244° |
| 2026-04-29 13:55 | -6.76079 | -76.54792 | 39992 ft | 446 kts | 244° |
| 2026-04-29 13:56 | -6.78961 | -76.60318 | 39991 ft | 445 kts | 244° |
| 2026-04-29 13:56 | -6.81853 | -76.65866 | 39991 ft | 444 kts | 244° |
| 2026-04-29 13:57 | -6.84703 | -76.71331 | 39992 ft | 444 kts | 244° |
| 2026-04-29 13:57 | -6.87104 | -76.75938 | 39999 ft | 444 kts | 244° |
| 2026-04-29 13:58 | -6.90429 | -76.82322 | 39997 ft | 443 kts | 245° |
| 2026-04-29 13:58 | -6.93286 | -76.87808 | 40002 ft | 442 kts | 245° |
| 2026-04-29 13:59 | -6.96137 | -76.93286 | 40005 ft | 442 kts | 245° |
| 2026-04-29 13:59 | -6.98986 | -76.98760 | 40013 ft | 441 kts | 245° |
| 2026-04-29 14:00 | -7.01829 | -77.04227 | 40018 ft | 440 kts | 245° |
| 2026-04-29 14:00 | -7.04669 | -77.09687 | 40035 ft | 440 kts | 245° |
| 2026-04-29 14:01 | -7.07508 | -77.15151 | 40036 ft | 440 kts | 245° |
| 2026-04-29 14:01 | -7.10345 | -77.20613 | 40058 ft | 440 kts | 245° |
| 2026-04-29 14:02 | -7.13162 | -77.26036 | 40079 ft | 440 kts | 245° |
| 2026-04-29 14:02 | -7.15999 | -77.31501 | 40084 ft | 441 kts | 245° |
| 2026-04-29 14:03 | -7.18837 | -77.36971 | 40100 ft | 441 kts | 245° |
| 2026-04-29 14:03 | -7.21674 | -77.42439 | 40079 ft | 441 kts | 245° |
| 2026-04-29 14:04 | -7.24512 | -77.47913 | 40114 ft | 441 kts | 245° |
| 2026-04-29 14:04 | -7.27351 | -77.53392 | 40120 ft | 441 kts | 245° |
| 2026-04-29 14:05 | -7.29706 | -77.57938 | 40129 ft | 441 kts | 245° |
| 2026-04-29 14:05 | -7.32542 | -77.63412 | 40123 ft | 441 kts | 245° |
| 2026-04-29 14:06 | -7.35375 | -77.68885 | 40123 ft | 441 kts | 245° |
| 2026-04-29 14:06 | -7.38208 | -77.74358 | 40106 ft | 440 kts | 245° |
| 2026-04-29 14:07 | -7.41036 | -77.79826 | 40104 ft | 440 kts | 245° |
| 2026-04-29 14:07 | -7.43865 | -77.85294 | 40100 ft | 440 kts | 245° |
| 2026-04-29 14:08 | -7.46689 | -77.90758 | 40103 ft | 440 kts | 245° |
| 2026-04-29 14:08 | -7.49515 | -77.96228 | 40089 ft | 440 kts | 245° |
| 2026-04-29 14:09 | -7.52341 | -78.01696 | 40105 ft | 440 kts | 245° |
| 2026-04-29 14:09 | -7.55169 | -78.07173 | 40106 ft | 440 kts | 245° |
| 2026-04-29 14:10 | -7.57995 | -78.12647 | 40107 ft | 441 kts | 245° |
| 2026-04-29 14:10 | -7.59410 | -78.15388 | 40260 ft | 441 kts | 244° |
| 2026-04-29 14:10 | -7.60827 | -78.18131 | 40482 ft | 441 kts | 244° |
| 2026-04-29 14:11 | -7.62243 | -78.20874 | 40679 ft | 440 kts | 244° |
| 2026-04-29 14:11 | -7.63654 | -78.23609 | 40891 ft | 440 kts | 244° |
| 2026-04-29 14:11 | -7.65061 | -78.26335 | 41066 ft | 439 kts | 244° |
| 2026-04-29 14:11 | -7.66471 | -78.29067 | 41108 ft | 439 kts | 244° |
| 2026-04-29 14:12 | -7.69274 | -78.34500 | 41095 ft | 436 kts | 244° |
| 2026-04-29 14:12 | -7.72071 | -78.39925 | 41094 ft | 437 kts | 244° |
| 2026-04-29 14:13 | -7.74872 | -78.45358 | 41079 ft | 437 kts | 244° |
| 2026-04-29 14:13 | -7.77673 | -78.50794 | 41072 ft | 437 kts | 244° |
| 2026-04-29 14:14 | -7.80455 | -78.56195 | 41069 ft | 437 kts | 244° |
| 2026-04-29 14:14 | -7.83256 | -78.61636 | 41053 ft | 437 kts | 244° |
| 2026-04-29 14:15 | -7.86057 | -78.67077 | 41048 ft | 437 kts | 243° |
| 2026-04-29 14:15 | -7.88859 | -78.72523 | 41042 ft | 437 kts | 243° |
| 2026-04-29 14:16 | -7.91659 | -78.77968 | 41032 ft | 437 kts | 243° |
| 2026-04-29 14:16 | -7.94456 | -78.83406 | 41008 ft | 436 kts | 243° |
| 2026-04-29 14:17 | -7.97248 | -78.88839 | 40992 ft | 436 kts | 243° |
| 2026-04-29 14:17 | -8.00036 | -78.94266 | 40979 ft | 436 kts | 243° |
| 2026-04-29 14:18 | -8.02825 | -78.99690 | 40966 ft | 435 kts | 242° |
| 2026-04-29 14:18 | -8.04521 | -79.02203 | 40953 ft | 434 kts | 227° |
| 2026-04-29 14:18 | -8.06802 | -79.04183 | 40970 ft | 435 kts | 213° |
| 2026-04-29 14:19 | -8.09524 | -79.05517 | 40962 ft | 437 kts | 199° |
| 2026-04-29 14:19 | -8.12501 | -79.06141 | 40966 ft | 439 kts | 185° |
| 2026-04-29 14:19 | -8.15562 | -79.06072 | 40968 ft | 443 kts | 173° |
| 2026-04-29 14:19 | -8.18546 | -79.05294 | 40954 ft | 445 kts | 159° |
| 2026-04-29 14:20 | -8.24155 | -79.02566 | 40958 ft | 449 kts | 154° |
| 2026-04-29 14:20 | -8.29677 | -78.99598 | 40967 ft | 450 kts | 153° |
| 2026-04-29 14:21 | -8.35174 | -78.96560 | 40971 ft | 450 kts | 153° |
| 2026-04-29 14:21 | -8.40655 | -78.93512 | 40972 ft | 451 kts | 153° |
| 2026-04-29 14:22 | -8.46159 | -78.90449 | 40974 ft | 451 kts | 153° |
| 2026-04-29 14:22 | -8.51659 | -78.87387 | 40971 ft | 451 kts | 153° |
| 2026-04-29 14:23 | -8.57162 | -78.84323 | 40971 ft | 452 kts | 153° |
| 2026-04-29 14:23 | -8.62668 | -78.81255 | 40976 ft | 452 kts | 153° |
| 2026-04-29 14:24 | -8.68145 | -78.78203 | 40973 ft | 452 kts | 153° |
| 2026-04-29 14:24 | -8.73656 | -78.75131 | 40972 ft | 453 kts | 153° |
| 2026-04-29 14:25 | -8.79177 | -78.72053 | 40970 ft | 453 kts | 153° |
| 2026-04-29 14:25 | -8.84697 | -78.68974 | 41000 ft | 453 kts | 153° |
| 2026-04-29 14:26 | -8.90218 | -78.65893 | 40989 ft | 453 kts | 153° |
| 2026-04-29 14:26 | -8.95739 | -78.62811 | 40985 ft | 454 kts | 153° |
| 2026-04-29 14:27 | -9.01265 | -78.59725 | 40977 ft | 454 kts | 153° |
| 2026-04-29 14:28 | -9.09560 | -78.55091 | 40966 ft | 454 kts | 153° |
| 2026-04-29 14:28 | -9.15125 | -78.52065 | 40963 ft | 453 kts | 157° |
| 2026-04-29 14:29 | -9.20837 | -78.49338 | 40966 ft | 454 kts | 156° |
| 2026-04-29 14:29 | -9.26538 | -78.46566 | 40974 ft | 455 kts | 156° |
| 2026-04-29 14:30 | -9.32245 | -78.43787 | 40991 ft | 455 kts | 156° |
| 2026-04-29 14:30 | -9.37954 | -78.41004 | 41009 ft | 456 kts | 156° |
| 2026-04-29 14:31 | -9.43671 | -78.38217 | 41037 ft | 456 kts | 156° |
| 2026-04-29 14:31 | -9.49352 | -78.35447 | 41058 ft | 456 kts | 156° |
| 2026-04-29 14:32 | -9.55114 | -78.32635 | 41073 ft | 457 kts | 156° |
| 2026-04-29 14:32 | -9.60804 | -78.29858 | 41077 ft | 457 kts | 156° |
| 2026-04-29 14:33 | -9.66542 | -78.27057 | 41081 ft | 458 kts | 156° |
| 2026-04-29 14:33 | -9.72278 | -78.24255 | 41081 ft | 458 kts | 156° |
| 2026-04-29 14:34 | -9.78016 | -78.21452 | 41079 ft | 458 kts | 156° |
| 2026-04-29 14:34 | -9.83760 | -78.18644 | 41080 ft | 458 kts | 156° |
| 2026-04-29 14:35 | -9.89507 | -78.15834 | 41079 ft | 459 kts | 156° |
| 2026-04-29 14:35 | -9.95258 | -78.13020 | 41085 ft | 459 kts | 156° |
| 2026-04-29 14:36 | -10.01008 | -78.10206 | 41081 ft | 459 kts | 156° |
| 2026-04-29 14:36 | -10.06764 | -78.07388 | 41077 ft | 459 kts | 156° |
| 2026-04-29 14:37 | -10.12520 | -78.04569 | 41071 ft | 460 kts | 156° |
| 2026-04-29 14:37 | -10.18278 | -78.01749 | 41068 ft | 460 kts | 156° |
| 2026-04-29 14:38 | -10.24048 | -77.98933 | 41068 ft | 460 kts | 156° |
| 2026-04-29 14:38 | -10.29814 | -77.96118 | 41064 ft | 460 kts | 156° |
| 2026-04-29 14:39 | -10.35588 | -77.93299 | 41058 ft | 461 kts | 156° |
| 2026-04-29 14:39 | -10.41328 | -77.90494 | 41053 ft | 461 kts | 156° |
| 2026-04-29 14:40 | -10.47112 | -77.87667 | 41049 ft | 462 kts | 156° |
| 2026-04-29 14:40 | -10.52901 | -77.84837 | 41042 ft | 462 kts | 156° |
| 2026-04-29 14:41 | -10.58695 | -77.82003 | 41034 ft | 462 kts | 156° |
| 2026-04-29 14:41 | -10.64495 | -77.79165 | 41028 ft | 463 kts | 156° |
| 2026-04-29 14:42 | -10.70301 | -77.76322 | 41023 ft | 463 kts | 155° |
| 2026-04-29 14:42 | -10.76105 | -77.73480 | 41013 ft | 463 kts | 155° |
| 2026-04-29 14:43 | -10.81918 | -77.70631 | 41009 ft | 464 kts | 155° |
| 2026-04-29 14:43 | -10.87734 | -77.67780 | 41007 ft | 464 kts | 155° |
| 2026-04-29 14:44 | -10.93556 | -77.64925 | 41004 ft | 465 kts | 155° |
| 2026-04-29 14:44 | -10.99378 | -77.62068 | 41001 ft | 465 kts | 155° |
| 2026-04-29 14:45 | -11.05210 | -77.59206 | 40999 ft | 465 kts | 155° |
| 2026-04-29 14:45 | -11.11044 | -77.56341 | 40994 ft | 466 kts | 155° |
| 2026-04-29 14:46 | -11.16881 | -77.53474 | 40990 ft | 466 kts | 155° |
| 2026-04-29 14:46 | -11.22724 | -77.50602 | 40988 ft | 466 kts | 155° |
| 2026-04-29 14:47 | -11.28531 | -77.47748 | 40985 ft | 467 kts | 155° |
| 2026-04-29 14:47 | -11.34382 | -77.44871 | 40983 ft | 467 kts | 155° |
| 2026-04-29 14:48 | -11.40238 | -77.41991 | 40980 ft | 467 kts | 155° |
| 2026-04-29 14:48 | -11.46099 | -77.39107 | 40978 ft | 468 kts | 155° |
| 2026-04-29 14:49 | -11.51961 | -77.36220 | 40978 ft | 468 kts | 155° |
| 2026-04-29 14:49 | -11.57826 | -77.33331 | 40971 ft | 468 kts | 155° |
| 2026-04-29 14:50 | -11.63699 | -77.30437 | 40971 ft | 469 kts | 155° |
| 2026-04-29 14:50 | -11.69574 | -77.27540 | 40970 ft | 469 kts | 155° |
| 2026-04-29 14:51 | -11.75456 | -77.24639 | 40966 ft | 470 kts | 155° |
| 2026-04-29 14:51 | -11.81347 | -77.21732 | 40967 ft | 470 kts | 155° |
| 2026-04-29 14:52 | -11.87245 | -77.18820 | 40967 ft | 471 kts | 155° |
| 2026-04-29 14:52 | -11.93147 | -77.15904 | 40967 ft | 471 kts | 155° |
| 2026-04-29 14:53 | -11.99049 | -77.12987 | 40967 ft | 472 kts | 155° |
| 2026-04-29 14:53 | -12.04878 | -77.09906 | 40959 ft | 472 kts | 146° |
| 2026-04-29 14:54 | -12.10298 | -77.06180 | 40964 ft | 474 kts | 147° |
| 2026-04-29 14:54 | -12.15765 | -77.02411 | 40966 ft | 474 kts | 147° |
| 2026-04-29 14:55 | -12.21234 | -76.98634 | 40963 ft | 475 kts | 147° |
| 2026-04-29 14:55 | -12.25782 | -76.95490 | 40965 ft | 475 kts | 147° |
| 2026-04-29 14:56 | -12.31257 | -76.91704 | 40964 ft | 475 kts | 147° |
| 2026-04-29 14:56 | -12.36739 | -76.87912 | 40964 ft | 476 kts | 146° |
| 2026-04-29 14:57 | -12.42221 | -76.84118 | 40965 ft | 476 kts | 146° |
| 2026-04-29 14:57 | -12.47709 | -76.80316 | 40967 ft | 476 kts | 146° |
| 2026-04-29 14:58 | -12.53198 | -76.76513 | 40967 ft | 477 kts | 146° |
| 2026-04-29 14:58 | -12.58693 | -76.72703 | 40970 ft | 477 kts | 146° |
| 2026-04-29 14:59 | -12.64196 | -76.68887 | 40970 ft | 478 kts | 146° |
| 2026-04-29 14:59 | -12.69698 | -76.65068 | 40974 ft | 478 kts | 146° |
| 2026-04-29 15:00 | -12.75212 | -76.61262 | 40969 ft | 478 kts | 150° |
| 2026-04-29 15:00 | -12.78203 | -76.59823 | 40980 ft | 474 kts | 161° |
| 2026-04-29 15:00 | -12.81286 | -76.58591 | 40956 ft | 477 kts | 159° |
| 2026-04-29 15:01 | -12.87452 | -76.56083 | 40967 ft | 477 kts | 160° |
| 2026-04-29 15:01 | -12.93639 | -76.53597 | 40974 ft | 478 kts | 160° |
| 2026-04-29 15:02 | -12.99827 | -76.51111 | 40976 ft | 478 kts | 160° |
| 2026-04-29 15:02 | -13.06026 | -76.48620 | 40972 ft | 478 kts | 160° |
| 2026-04-29 15:03 | -13.12221 | -76.46130 | 40968 ft | 479 kts | 160° |
| 2026-04-29 15:03 | -13.18423 | -76.43635 | 40969 ft | 479 kts | 160° |
| 2026-04-29 15:04 | -13.24627 | -76.41138 | 40964 ft | 479 kts | 160° |
| 2026-04-29 15:04 | -13.30798 | -76.38653 | 40967 ft | 480 kts | 160° |
| 2026-04-29 15:05 | -13.37012 | -76.36149 | 40963 ft | 480 kts | 160° |
| 2026-04-29 15:05 | -13.43227 | -76.33643 | 40965 ft | 480 kts | 160° |
| 2026-04-29 15:06 | -13.49448 | -76.31134 | 40962 ft | 480 kts | 160° |
| 2026-04-29 15:06 | -13.55670 | -76.28623 | 40966 ft | 481 kts | 160° |
| 2026-04-29 15:07 | -13.61901 | -76.26107 | 40969 ft | 481 kts | 160° |
| 2026-04-29 15:07 | -13.68130 | -76.23590 | 40964 ft | 481 kts | 160° |
| 2026-04-29 15:08 | -13.74255 | -76.20811 | 40947 ft | 482 kts | 146° |
| 2026-04-29 15:08 | -13.79631 | -76.16668 | 40959 ft | 484 kts | 143° |
| 2026-04-29 15:09 | -13.85003 | -76.12481 | 40967 ft | 485 kts | 143° |
| 2026-04-29 15:09 | -13.90360 | -76.08257 | 40967 ft | 485 kts | 143° |
| 2026-04-29 15:10 | -13.95721 | -76.04024 | 40977 ft | 486 kts | 143° |
| 2026-04-29 15:10 | -14.01085 | -75.99786 | 40982 ft | 486 kts | 143° |
| 2026-04-29 15:11 | -14.06453 | -75.95542 | 40987 ft | 486 kts | 143° |
| 2026-04-29 15:11 | -14.11819 | -75.91296 | 40997 ft | 487 kts | 143° |
| 2026-04-29 15:12 | -14.17195 | -75.87041 | 41004 ft | 487 kts | 143° |
| 2026-04-29 15:12 | -14.22564 | -75.82788 | 41005 ft | 487 kts | 142° |
| 2026-04-29 15:13 | -14.27940 | -75.78528 | 41010 ft | 488 kts | 143° |
| 2026-04-29 15:13 | -14.33321 | -75.74259 | 41020 ft | 488 kts | 143° |
| 2026-04-29 15:14 | -14.38702 | -75.69990 | 41027 ft | 488 kts | 143° |
| 2026-04-29 15:14 | -14.44090 | -75.65711 | 41028 ft | 489 kts | 143° |
| 2026-04-29 15:15 | -14.49481 | -75.61428 | 41034 ft | 489 kts | 143° |
| 2026-04-29 15:15 | -14.54873 | -75.57140 | 41034 ft | 490 kts | 143° |
| 2026-04-29 15:16 | -14.60271 | -75.52847 | 41034 ft | 490 kts | 143° |
| 2026-04-29 15:16 | -14.65668 | -75.48550 | 41037 ft | 490 kts | 142° |
| 2026-04-29 15:17 | -14.71070 | -75.44247 | 41031 ft | 490 kts | 143° |
| 2026-04-29 15:17 | -14.76472 | -75.39941 | 41039 ft | 491 kts | 143° |
| 2026-04-29 15:18 | -14.81838 | -75.35661 | 41035 ft | 490 kts | 142° |
| 2026-04-29 15:18 | -14.87245 | -75.31346 | 41019 ft | 491 kts | 143° |
| 2026-04-29 15:19 | -14.92648 | -75.27031 | 41034 ft | 491 kts | 142° |
| 2026-04-29 15:19 | -14.98060 | -75.22705 | 41038 ft | 492 kts | 143° |
| 2026-04-29 15:20 | -15.03469 | -75.18380 | 41028 ft | 492 kts | 143° |
| 2026-04-29 15:20 | -15.08882 | -75.14049 | 41040 ft | 492 kts | 143° |
| 2026-04-29 15:21 | -15.14302 | -75.09709 | 41040 ft | 493 kts | 143° |
| 2026-04-29 15:21 | -15.19722 | -75.05366 | 41040 ft | 493 kts | 143° |
| 2026-04-29 15:22 | -15.25146 | -75.01016 | 41039 ft | 493 kts | 143° |
| 2026-04-29 15:22 | -15.30567 | -74.96667 | 41041 ft | 493 kts | 143° |
| 2026-04-29 15:23 | -15.35991 | -74.92312 | 41039 ft | 493 kts | 143° |
| 2026-04-29 15:23 | -15.41419 | -74.87951 | 41038 ft | 494 kts | 143° |
| 2026-04-29 15:24 | -15.46846 | -74.83588 | 41037 ft | 494 kts | 143° |
| 2026-04-29 15:24 | -15.52275 | -74.79221 | 41040 ft | 494 kts | 143° |
| 2026-04-29 15:25 | -15.57707 | -74.74847 | 41027 ft | 494 kts | 143° |
| 2026-04-29 15:25 | -15.63105 | -74.70498 | 41024 ft | 495 kts | 143° |
| 2026-04-29 15:26 | -15.68539 | -74.66118 | 41014 ft | 495 kts | 143° |
| 2026-04-29 15:26 | -15.73977 | -74.61730 | 41014 ft | 495 kts | 143° |
| 2026-04-29 15:27 | -15.79416 | -74.57340 | 41009 ft | 495 kts | 143° |
| 2026-04-29 15:27 | -15.84857 | -74.52944 | 41007 ft | 495 kts | 143° |
| 2026-04-29 15:28 | -15.90297 | -74.48546 | 41001 ft | 496 kts | 143° |
| 2026-04-29 15:28 | -15.95740 | -74.44142 | 40997 ft | 496 kts | 143° |
| 2026-04-29 15:29 | -16.01185 | -74.39735 | 40996 ft | 496 kts | 143° |
| 2026-04-29 15:30 | -16.12089 | -74.30898 | 40995 ft | 497 kts | 143° |
| 2026-04-29 15:30 | -16.17544 | -74.26472 | 40995 ft | 498 kts | 143° |
| 2026-04-29 15:31 | -16.23003 | -74.22039 | 40994 ft | 498 kts | 143° |
| 2026-04-29 15:31 | -16.28470 | -74.17597 | 41000 ft | 498 kts | 143° |
| 2026-04-29 15:32 | -16.33937 | -74.13153 | 40994 ft | 499 kts | 143° |
| 2026-04-29 15:32 | -16.39372 | -74.08732 | 40993 ft | 499 kts | 143° |
| 2026-04-29 15:33 | -16.44844 | -74.04276 | 40995 ft | 499 kts | 143° |
| 2026-04-29 15:33 | -16.50317 | -73.99818 | 40993 ft | 500 kts | 143° |
| 2026-04-29 15:34 | -16.55829 | -73.95323 | 40994 ft | 500 kts | 143° |
| 2026-04-29 15:34 | -16.61270 | -73.90878 | 40993 ft | 500 kts | 143° |
| 2026-04-29 15:35 | -16.66749 | -73.86400 | 40995 ft | 501 kts | 143° |
| 2026-04-29 15:35 | -16.72234 | -73.81915 | 40997 ft | 501 kts | 143° |
| 2026-04-29 15:36 | -16.77715 | -73.77430 | 40996 ft | 501 kts | 143° |
| 2026-04-29 15:36 | -16.83202 | -73.72938 | 40999 ft | 501 kts | 143° |
| 2026-04-29 15:37 | -16.88692 | -73.68438 | 40997 ft | 502 kts | 143° |
| 2026-04-29 15:37 | -16.94182 | -73.63935 | 40998 ft | 502 kts | 143° |
| 2026-04-29 15:38 | -16.99675 | -73.59426 | 40995 ft | 502 kts | 143° |
| 2026-04-29 15:38 | -17.05174 | -73.54910 | 40993 ft | 503 kts | 143° |
| 2026-04-29 15:39 | -17.10677 | -73.50386 | 40999 ft | 503 kts | 143° |
| 2026-04-29 15:39 | -17.16182 | -73.45857 | 40999 ft | 504 kts | 143° |
| 2026-04-29 15:40 | -17.21689 | -73.41322 | 41004 ft | 504 kts | 143° |
| 2026-04-29 15:40 | -17.27201 | -73.36781 | 40996 ft | 504 kts | 143° |
| 2026-04-29 15:41 | -17.32713 | -73.32236 | 40992 ft | 505 kts | 143° |
| 2026-04-29 15:41 | -17.38229 | -73.27683 | 40999 ft | 505 kts | 143° |
| 2026-04-29 15:42 | -17.43742 | -73.23130 | 40995 ft | 505 kts | 143° |
| 2026-04-29 15:42 | -17.48327 | -73.19341 | 40991 ft | 505 kts | 143° |
| 2026-04-29 15:43 | -17.53847 | -73.14775 | 40995 ft | 505 kts | 143° |
| 2026-04-29 15:43 | -17.59363 | -73.10209 | 40998 ft | 506 kts | 143° |
| 2026-04-29 15:44 | -17.64885 | -73.05634 | 40997 ft | 506 kts | 143° |
| 2026-04-29 15:44 | -17.70404 | -73.01059 | 40996 ft | 506 kts | 143° |
| 2026-04-29 15:45 | -17.75927 | -72.96476 | 40995 ft | 506 kts | 143° |
| 2026-04-29 15:45 | -17.81447 | -72.91892 | 41001 ft | 506 kts | 143° |
| 2026-04-29 15:46 | -17.86970 | -72.87301 | 41001 ft | 506 kts | 143° |
| 2026-04-29 15:46 | -17.92493 | -72.82707 | 40996 ft | 507 kts | 143° |
| 2026-04-29 15:47 | -17.98021 | -72.78105 | 41001 ft | 507 kts | 143° |
| 2026-04-29 15:47 | -18.03506 | -72.73535 | 41000 ft | 507 kts | 143° |
| 2026-04-29 15:48 | -18.09035 | -72.68925 | 40999 ft | 507 kts | 143° |
| 2026-04-29 15:48 | -18.14566 | -72.64309 | 41000 ft | 508 kts | 143° |
| 2026-04-29 15:49 | -18.20098 | -72.59689 | 41001 ft | 508 kts | 143° |
| 2026-04-29 15:49 | -18.25628 | -72.55067 | 41000 ft | 508 kts | 143° |
| 2026-04-29 15:50 | -18.31159 | -72.50440 | 41002 ft | 508 kts | 143° |
| 2026-04-29 15:50 | -18.36481 | -72.45549 | 40999 ft | 509 kts | 134° |
| 2026-04-29 15:51 | -18.41362 | -72.40127 | 41001 ft | 510 kts | 134° |
| 2026-04-29 15:51 | -18.46237 | -72.34690 | 40999 ft | 510 kts | 134° |
| 2026-04-29 15:52 | -18.51111 | -72.29245 | 41000 ft | 511 kts | 134° |
| 2026-04-29 15:52 | -18.55985 | -72.23796 | 41001 ft | 511 kts | 134° |
| 2026-04-29 15:53 | -18.60859 | -72.18343 | 41003 ft | 511 kts | 134° |
| 2026-04-29 15:53 | -18.65732 | -72.12885 | 41003 ft | 511 kts | 134° |
| 2026-04-29 15:54 | -18.70607 | -72.07421 | 41000 ft | 511 kts | 134° |
| 2026-04-29 15:54 | -18.75482 | -72.01951 | 41000 ft | 512 kts | 134° |
| 2026-04-29 15:55 | -18.80356 | -71.96479 | 40999 ft | 512 kts | 134° |
| 2026-04-29 15:55 | -18.85229 | -71.91001 | 41000 ft | 512 kts | 134° |
| 2026-04-29 15:56 | -18.90103 | -71.85518 | 41005 ft | 512 kts | 134° |
| 2026-04-29 15:56 | -18.94944 | -71.80067 | 41005 ft | 512 kts | 134° |
| 2026-04-29 15:57 | -18.99815 | -71.74577 | 41000 ft | 512 kts | 134° |
| 2026-04-29 15:57 | -19.04691 | -71.69077 | 41006 ft | 513 kts | 134° |
| 2026-04-29 15:58 | -19.09564 | -71.63575 | 40997 ft | 512 kts | 134° |
| 2026-04-29 15:58 | -19.14434 | -71.58070 | 41001 ft | 513 kts | 134° |
| 2026-04-29 15:59 | -19.19310 | -71.52555 | 41002 ft | 513 kts | 134° |
| 2026-04-29 15:59 | -19.24182 | -71.47039 | 41006 ft | 513 kts | 134° |
| 2026-04-29 16:00 | -19.29058 | -71.41512 | 41003 ft | 514 kts | 134° |
| 2026-04-29 16:00 | -19.33932 | -71.35983 | 41001 ft | 514 kts | 134° |
| 2026-04-29 16:01 | -19.38809 | -71.30446 | 40996 ft | 514 kts | 134° |
| 2026-04-29 16:01 | -19.43685 | -71.24904 | 41004 ft | 514 kts | 134° |
| 2026-04-29 16:02 | -19.48562 | -71.19356 | 41002 ft | 515 kts | 134° |
| 2026-04-29 16:02 | -19.53433 | -71.13809 | 41003 ft | 514 kts | 134° |
| 2026-04-29 16:03 | -19.58304 | -71.08258 | 40999 ft | 514 kts | 134° |
| 2026-04-29 16:03 | -19.63170 | -71.02708 | 41002 ft | 514 kts | 134° |
| 2026-04-29 16:04 | -19.68035 | -70.97153 | 41002 ft | 514 kts | 135° |
| 2026-04-29 16:04 | -19.73300 | -70.92170 | 41006 ft | 510 kts | 143° |
| 2026-04-29 16:05 | -19.78770 | -70.87363 | 41000 ft | 510 kts | 143° |
| 2026-04-29 16:05 | -19.84248 | -70.82565 | 41000 ft | 510 kts | 143° |
| 2026-04-29 16:06 | -19.89724 | -70.77766 | 41000 ft | 510 kts | 143° |
| 2026-04-29 16:06 | -19.95190 | -70.72970 | 41004 ft | 510 kts | 143° |
| 2026-04-29 16:07 | -20.00661 | -70.68166 | 41000 ft | 510 kts | 143° |
| 2026-04-29 16:07 | -20.06128 | -70.63362 | 41002 ft | 509 kts | 143° |
| 2026-04-29 16:08 | -20.11588 | -70.58558 | 41000 ft | 510 kts | 143° |
| 2026-04-29 16:08 | -20.17045 | -70.53753 | 41003 ft | 509 kts | 143° |
| 2026-04-29 16:09 | -20.22500 | -70.48946 | 41005 ft | 509 kts | 143° |
| 2026-04-29 16:09 | -20.27953 | -70.44134 | 41006 ft | 509 kts | 144° |
| 2026-04-29 16:10 | -20.33401 | -70.39323 | 41003 ft | 509 kts | 144° |
| 2026-04-29 16:10 | -20.38844 | -70.34513 | 41001 ft | 508 kts | 144° |
| 2026-04-29 16:11 | -20.44284 | -70.29700 | 40997 ft | 508 kts | 144° |
| 2026-04-29 16:11 | -20.49724 | -70.24882 | 40992 ft | 508 kts | 144° |
| 2026-04-29 16:12 | -20.55160 | -70.20065 | 40992 ft | 508 kts | 144° |
| 2026-04-29 16:12 | -20.60915 | -70.15816 | 41001 ft | 502 kts | 152° |
| 2026-04-29 16:13 | -20.66835 | -70.11845 | 40997 ft | 502 kts | 153° |
| 2026-04-29 16:13 | -20.72754 | -70.07890 | 40994 ft | 502 kts | 153° |
| 2026-04-29 16:14 | -20.78670 | -70.03934 | 40989 ft | 502 kts | 153° |
| 2026-04-29 16:14 | -20.84580 | -69.99978 | 40989 ft | 501 kts | 153° |
| 2026-04-29 16:15 | -20.90456 | -69.96041 | 40987 ft | 503 kts | 153° |
| 2026-04-29 16:15 | -20.96396 | -69.92057 | 40984 ft | 504 kts | 153° |
| 2026-04-29 16:16 | -21.02328 | -69.88075 | 40977 ft | 503 kts | 153° |
| 2026-04-29 16:16 | -21.08251 | -69.84095 | 40975 ft | 503 kts | 153° |
| 2026-04-29 16:17 | -21.14173 | -69.80113 | 40962 ft | 502 kts | 153° |
| 2026-04-29 16:17 | -21.20089 | -69.76131 | 40966 ft | 502 kts | 153° |
| 2026-04-29 16:18 | -21.26004 | -69.72148 | 40957 ft | 502 kts | 153° |
| 2026-04-29 16:18 | -21.31911 | -69.68166 | 40956 ft | 501 kts | 153° |
| 2026-04-29 16:19 | -21.37816 | -69.64182 | 40950 ft | 501 kts | 153° |
| 2026-04-29 16:19 | -21.43713 | -69.60199 | 40944 ft | 500 kts | 153° |
| 2026-04-29 16:20 | -21.49597 | -69.56221 | 40936 ft | 500 kts | 153° |
| 2026-04-29 16:20 | -21.55475 | -69.52243 | 40931 ft | 499 kts | 153° |
| 2026-04-29 16:21 | -21.61349 | -69.48264 | 40929 ft | 499 kts | 153° |
| 2026-04-29 16:21 | -21.67214 | -69.44287 | 40926 ft | 498 kts | 153° |
| 2026-04-29 16:21 | -21.70098 | -69.42330 | 40819 ft | 492 kts | 153° |
| 2026-04-29 16:22 | -21.72984 | -69.40371 | 39827 ft | 492 kts | 153° |
| 2026-04-29 16:22 | -21.75884 | -69.38402 | 38798 ft | 495 kts | 153° |
| 2026-04-29 16:22 | -21.78808 | -69.36415 | 37498 ft | 499 kts | 153° |
| 2026-04-29 16:22 | -21.81752 | -69.34412 | 36193 ft | 503 kts | 153° |
| 2026-04-29 16:23 | -21.84714 | -69.32396 | 34923 ft | 503 kts | 153° |
| 2026-04-29 16:23 | -21.87618 | -69.30418 | 33734 ft | 483 kts | 153° |
| 2026-04-29 16:23 | -21.90427 | -69.28504 | 32172 ft | 475 kts | 152° |
| 2026-04-29 16:23 | -21.93193 | -69.26618 | 30217 ft | 466 kts | 152° |
| 2026-04-29 16:24 | -21.95910 | -69.24767 | 28118 ft | 457 kts | 151° |
| 2026-04-29 16:24 | -21.98570 | -69.22951 | 26139 ft | 449 kts | 150° |
| 2026-04-29 16:24 | -22.01190 | -69.21164 | 24289 ft | 442 kts | 150° |
| 2026-04-29 16:24 | -22.03762 | -69.19409 | 22339 ft | 433 kts | 149° |
| 2026-04-29 16:25 | -22.06274 | -69.17694 | 20410 ft | 422 kts | 149° |
| 2026-04-29 16:25 | -22.08819 | -69.16222 | 18594 ft | 409 kts | 161° |
| 2026-04-29 16:25 | -22.11536 | -69.15602 | 16690 ft | 394 kts | 178° |
| 2026-04-29 16:25 | -22.14238 | -69.15659 | 14848 ft | 384 kts | 184° |
| 2026-04-29 16:26 | -22.16899 | -69.15810 | 13063 ft | 387 kts | 184° |
| 2026-04-29 16:26 | -22.19561 | -69.15987 | 12540 ft | 370 kts | 185° |
| 2026-04-29 16:26 | -22.22022 | -69.16165 | 12569 ft | 339 kts | 185° |
| 2026-04-29 16:26 | -22.24287 | -69.16337 | 12501 ft | 314 kts | 185° |
| 2026-04-29 16:27 | -22.26398 | -69.16501 | 12378 ft | 295 kts | 185° |
| 2026-04-29 16:27 | -22.28383 | -69.16657 | 12238 ft | 278 kts | 185° |
| 2026-04-29 16:27 | -22.30258 | -69.16806 | 12101 ft | 262 kts | 186° |
| 2026-04-29 16:27 | -22.32024 | -69.16946 | 11982 ft | 247 kts | 186° |
| 2026-04-29 16:28 | -22.33694 | -69.17078 | 11862 ft | 237 kts | 186° |
| 2026-04-29 16:28 | -22.35360 | -69.17209 | 11792 ft | 243 kts | 186° |
| 2026-04-29 16:28 | -22.37065 | -69.17346 | 11683 ft | 247 kts | 185° |
| 2026-04-29 16:28 | -22.38776 | -69.17483 | 11544 ft | 246 kts | 186° |
| 2026-04-29 16:29 | -22.40484 | -69.17618 | 11410 ft | 246 kts | 186° |
| 2026-04-29 16:29 | -22.42193 | -69.17753 | 11301 ft | 246 kts | 185° |
| 2026-04-29 16:29 | -22.43898 | -69.17888 | 11242 ft | 246 kts | 185° |
| 2026-04-29 16:29 | -22.45609 | -69.17844 | 11117 ft | 247 kts | 166° |
| 2026-04-29 16:30 | -22.47108 | -69.16978 | 10965 ft | 245 kts | 135° |
| 2026-04-29 16:30 | -22.47997 | -69.15481 | 10937 ft | 233 kts | 106° |
| 2026-04-29 16:30 | -22.48281 | -69.13799 | 10808 ft | 225 kts | 94° |
| 2026-04-29 16:30 | -22.48439 | -69.12135 | 10654 ft | 219 kts | 94° |
| 2026-04-29 16:31 | -22.48532 | -69.11068 | 10580 ft | 212 kts | 93° |
| 2026-04-29 16:31 | -22.48661 | -69.09490 | 10341 ft | 210 kts | 92° |
| 2026-04-29 16:31 | -22.48783 | -69.07913 | 10033 ft | 210 kts | 93° |
| 2026-04-29 16:31 | -22.48898 | -69.06363 | 9822 ft | 203 kts | 93° |
| 2026-04-29 16:32 | -22.49007 | -69.04871 | 9724 ft | 197 kts | 93° |
| 2026-04-29 16:32 | -22.49096 | -69.03392 | 9504 ft | 199 kts | 93° |
| 2026-04-29 16:32 | -22.49208 | -69.01889 | 9193 ft | 199 kts | 93° |
| 2026-04-29 16:32 | -22.49310 | -69.00427 | 8847 ft | 191 kts | 94° |
| 2026-04-29 16:33 | -22.49495 | -68.97739 | 8349 ft | 166 kts | 94° |
| 2026-04-29 16:33 | -22.49576 | -68.96530 | 8159 ft | 157 kts | 94° |
| 2026-04-29 16:33 | -22.49658 | -68.95367 | 7957 ft | 154 kts | 93° |
| 2026-04-29 16:34 | -22.49736 | -68.94251 | 7722 ft | 145 kts | 94° |
| 2026-04-29 16:34 | -22.49814 | -68.93170 | 7599 ft | 142 kts | 93° |
| 2026-04-29 16:34 | -22.49884 | -68.92083 | 7505 ft | 151 kts | 95° |
| 2026-04-29 16:34 | -22.49966 | -68.90979 | 7475 ft | 128 kts | 95° |
| 2026-04-29 16:35 | -22.50014 | -68.90264 | 7536 ft | 80 kts | 95° |
| 2026-04-29 16:35 | -22.50044 | -68.89824 | 7568 ft | 39 kts | 88° |
| 2026-04-29 16:35 | -22.49970 | -68.89572 | 7586 ft | 33 kts | 62° |
| 2026-04-29 16:35 | -22.49913 | -68.89495 | 7588 ft | 7 kts | 342° |
| 2026-04-29 16:36 | -22.49892 | -68.89559 | 7584 ft | 14 kts | 274° |
| 2026-04-29 16:36 | -22.49880 | -68.89724 | 7575 ft | 29 kts | 274° |
| 2026-04-29 16:36 | -22.49865 | -68.89951 | 7560 ft | 30 kts | 276° |
| 2026-04-29 16:36 | -22.49850 | -68.90158 | 7541 ft | 27 kts | 274° |
| 2026-04-29 16:37 | -22.49837 | -68.90361 | 7525 ft | 27 kts | 274° |
| 2026-04-29 16:37 | -22.49822 | -68.90569 | 7505 ft | 27 kts | 274° |
| 2026-04-29 16:37 | -22.49811 | -68.90740 | 7481 ft | 9 kts | 281° |
| 2026-04-29 16:37 | -22.49794 | -68.90772 | 7481 ft | 9 kts | 325° |
| 2026-04-29 16:38 | -22.49685 | -68.90773 | 7487 ft | 12 kts | 356° |
| 2026-04-29 16:38 | -22.49654 | -68.90849 | 7486 ft | 12 kts | 273° |
| 2026-04-29 16:38 | -22.49635 | -68.90881 | 7475 ft | 3 kts | 351° |
| 2026-04-29 16:38 | -22.49608 | -68.90880 | 7479 ft | 5 kts | 3° |
| 2026-04-29 16:39 | -22.49599 | -68.90879 | 7475 ft | 1 kts | 3° |
| 2026-04-29 16:39 | -22.49590 | -68.90879 | 7481 ft | 0 kts | 3° |